BIKF/KEF METAR and TAF weather

Enter ICAO airport designator
Station Type Date Time Source
BIKF METAR 2019/02/23 23:00 UTC NOAA

BIKF 232300Z 25022KT 9999 FEW022 SCT036 04/M00 Q1005


Station Type Date Time Source
BIKF Decoded METAR 2019/02/23 23:00 UTC NOAA

Keflavikurflugvollur, Iceland (BIKF) 63-58N 022-36W 54M
Feb 23, 2019 - 06:00 PM EST / 2019.02.23 2300 UTC
Wind: from the WSW (250 degrees) at 25 MPH (22 KT):0
Visibility: greater than 7 mile(s):0
Sky conditions: partly cloudy
Temperature: 39 F (4 C)
Dew Point: 32 F (0 C)
Relative Humidity: 75%
Pressure (altimeter): 29.68 in. Hg (1005 hPa)
ob: BIKF 232300Z 25022KT 9999 FEW022 SCT036 04/M00 Q1005
cycle: 23

Station Type Date Time Source
BIKF TAF 2019/02/23 21:54 UTC NOAA

TAF BIKF 231951Z 2321/2421 27025G35KT 9999 SHRA SCT015 BKN025 TX08/2419Z TNM01/2407Z
BECMG 2323/2401 24015KT NSW FEW025 BKN035
BECMG 2406/2408 11015KT
BECMG 2410/2412 11025G35KT
BECMG 2412/2414 11035G50KT RA BKN015 OVC025
BECMG 2416/2418 16020KT 5000 DZ BR BKN005 OVC010


Example: see airport list